sensor_id;sensor_type;location;lat;lon;timestamp;P1;durP1;ratioP1;P2;durP2;ratioP2
53927;SDS011;39837;47.630;18.822;2023-05-07T00:01:51;6.40;;;5.25;;
53927;SDS011;39837;47.630;18.822;2023-05-07T00:04:36;5.80;;;5.22;;
53927;SDS011;39837;47.630;18.822;2023-05-07T00:07:21;6.45;;;5.57;;
53927;SDS011;39837;47.630;18.822;2023-05-07T00:10:05;5.00;;;4.28;;
53927;SDS011;39837;47.630;18.822;2023-05-07T00:12:50;6.57;;;5.30;;
53927;SDS011;39837;47.630;18.822;2023-05-07T00:15:34;9.05;;;5.65;;
53927;SDS011;39837;47.630;18.822;2023-05-07T00:18:18;27.77;;;6.95;;
53927;SDS011;39837;47.630;18.822;2023-05-07T00:21:04;11.57;;;6.35;;
53927;SDS011;39837;47.630;18.822;2023-05-07T00:23:48;7.38;;;5.63;;
53927;SDS011;39837;47.630;18.822;2023-05-07T00:26:33;5.63;;;5.22;;
53927;SDS011;39837;47.630;18.822;2023-05-07T00:29:17;10.07;;;5.18;;
53927;SDS011;39837;47.630;18.822;2023-05-07T00:32:01;7.22;;;5.85;;
53927;SDS011;39837;47.630;18.822;2023-05-07T00:34:45;7.65;;;5.70;;
53927;SDS011;39837;47.630;18.822;2023-05-07T00:37:29;6.95;;;6.25;;
53927;SDS011;39837;47.630;18.822;2023-05-07T00:40:13;8.15;;;5.75;;
53927;SDS011;39837;47.630;18.822;2023-05-07T00:42:58;4.80;;;4.32;;
53927;SDS011;39837;47.630;18.822;2023-05-07T00:45:43;5.88;;;5.38;;
53927;SDS011;39837;47.630;18.822;2023-05-07T00:48:27;6.20;;;5.68;;
53927;SDS011;39837;47.630;18.822;2023-05-07T00:51:11;7.53;;;4.78;;
53927;SDS011;39837;47.630;18.822;2023-05-07T00:53:55;4.88;;;4.47;;
53927;SDS011;39837;47.630;18.822;2023-05-07T00:56:39;6.68;;;4.78;;
53927;SDS011;39837;47.630;18.822;2023-05-07T00:59:23;7.05;;;5.32;;
53927;SDS011;39837;47.630;18.822;2023-05-07T01:02:08;6.20;;;5.57;;
53927;SDS011;39837;47.630;18.822;2023-05-07T01:04:52;5.97;;;5.47;;
53927;SDS011;39837;47.630;18.822;2023-05-07T01:07:36;6.65;;;5.10;;
53927;SDS011;39837;47.630;18.822;2023-05-07T01:10:20;4.80;;;4.38;;
53927;SDS011;39837;47.630;18.822;2023-05-07T01:13:05;5.88;;;4.85;;
53927;SDS011;39837;47.630;18.822;2023-05-07T01:15:50;5.50;;;5.00;;
53927;SDS011;39837;47.630;18.822;2023-05-07T01:18:34;7.40;;;5.85;;
53927;SDS011;39837;47.630;18.822;2023-05-07T01:21:19;8.68;;;5.82;;
53927;SDS011;39837;47.630;18.822;2023-05-07T01:24:10;8.75;;;5.25;;
53927;SDS011;39837;47.630;18.822;2023-05-07T01:26:54;7.72;;;5.70;;
53927;SDS011;39837;47.630;18.822;2023-05-07T01:29:38;5.97;;;5.38;;
53927;SDS011;39837;47.630;18.822;2023-05-07T01:32:27;5.32;;;4.82;;
53927;SDS011;39837;47.630;18.822;2023-05-07T01:35:15;7.68;;;5.25;;
53927;SDS011;39837;47.630;18.822;2023-05-07T01:38:02;5.60;;;4.97;;
53927;SDS011;39837;47.630;18.822;2023-05-07T01:40:48;6.03;;;4.90;;
53927;SDS011;39837;47.630;18.822;2023-05-07T01:43:32;5.68;;;5.18;;
53927;SDS011;39837;47.630;18.822;2023-05-07T01:46:17;5.60;;;5.10;;
53927;SDS011;39837;47.630;18.822;2023-05-07T01:49:01;5.78;;;5.00;;
53927;SDS011;39837;47.630;18.822;2023-05-07T01:51:46;7.13;;;6.43;;
53927;SDS011;39837;47.630;18.822;2023-05-07T01:54:30;23.88;;;8.05;;
53927;SDS011;39837;47.630;18.822;2023-05-07T01:57:14;21.65;;;10.20;;
53927;SDS011;39837;47.630;18.822;2023-05-07T01:59:58;8.85;;;5.72;;
53927;SDS011;39837;47.630;18.822;2023-05-07T02:02:42;8.85;;;5.38;;
53927;SDS011;39837;47.630;18.822;2023-05-07T02:05:26;5.45;;;4.95;;
53927;SDS011;39837;47.630;18.822;2023-05-07T02:08:10;5.07;;;4.57;;
53927;SDS011;39837;47.630;18.822;2023-05-07T02:10:54;4.72;;;4.22;;
53927;SDS011;39837;47.630;18.822;2023-05-07T02:13:39;5.22;;;4.78;;
53927;SDS011;39837;47.630;18.822;2023-05-07T02:16:23;5.70;;;4.95;;
53927;SDS011;39837;47.630;18.822;2023-05-07T02:19:07;5.38;;;4.93;;
53927;SDS011;39837;47.630;18.822;2023-05-07T02:21:51;5.22;;;4.78;;
53927;SDS011;39837;47.630;18.822;2023-05-07T02:24:37;5.63;;;5.10;;
53927;SDS011;39837;47.630;18.822;2023-05-07T02:27:21;4.57;;;4.20;;
53927;SDS011;39837;47.630;18.822;2023-05-07T02:30:07;5.35;;;4.85;;
53927;SDS011;39837;47.630;18.822;2023-05-07T02:32:51;4.25;;;3.90;;
53927;SDS011;39837;47.630;18.822;2023-05-07T02:35:35;4.85;;;4.55;;
53927;SDS011;39837;47.630;18.822;2023-05-07T02:38:20;4.53;;;4.22;;
53927;SDS011;39837;47.630;18.822;2023-05-07T02:41:04;4.38;;;4.07;;
53927;SDS011;39837;47.630;18.822;2023-05-07T02:43:48;4.10;;;3.80;;
53927;SDS011;39837;47.630;18.822;2023-05-07T02:46:32;4.07;;;3.78;;
53927;SDS011;39837;47.630;18.822;2023-05-07T02:49:17;4.30;;;4.00;;
53927;SDS011;39837;47.630;18.822;2023-05-07T02:52:01;3.60;;;3.30;;
53927;SDS011;39837;47.630;18.822;2023-05-07T02:54:45;4.63;;;4.28;;
53927;SDS011;39837;47.630;18.822;2023-05-07T02:57:30;5.63;;;4.18;;
53927;SDS011;39837;47.630;18.822;2023-05-07T03:00:14;4.55;;;4.25;;
53927;SDS011;39837;47.630;18.822;2023-05-07T03:03:00;4.78;;;4.38;;
53927;SDS011;39837;47.630;18.822;2023-05-07T03:05:44;5.38;;;4.22;;
53927;SDS011;39837;47.630;18.822;2023-05-07T03:08:28;3.97;;;3.67;;
53927;SDS011;39837;47.630;18.822;2023-05-07T03:11:12;5.03;;;4.28;;
53927;SDS011;39837;47.630;18.822;2023-05-07T03:13:56;3.55;;;3.25;;
53927;SDS011;39837;47.630;18.822;2023-05-07T03:16:40;3.85;;;3.40;;
53927;SDS011;39837;47.630;18.822;2023-05-07T03:19:25;3.65;;;3.22;;
53927;SDS011;39837;47.630;18.822;2023-05-07T03:22:09;3.35;;;3.17;;
53927;SDS011;39837;47.630;18.822;2023-05-07T03:24:53;15.60;;;5.00;;
53927;SDS011;39837;47.630;18.822;2023-05-07T03:27:37;6.30;;;5.15;;
53927;SDS011;39837;47.630;18.822;2023-05-07T03:30:21;9.00;;;4.47;;
53927;SDS011;39837;47.630;18.822;2023-05-07T03:33:05;8.70;;;3.88;;
53927;SDS011;39837;47.630;18.822;2023-05-07T03:35:49;3.85;;;3.65;;
53927;SDS011;39837;47.630;18.822;2023-05-07T03:38:33;3.75;;;3.33;;
53927;SDS011;39837;47.630;18.822;2023-05-07T03:41:17;3.63;;;3.42;;
53927;SDS011;39837;47.630;18.822;2023-05-07T03:44:01;3.08;;;2.88;;
53927;SDS011;39837;47.630;18.822;2023-05-07T03:46:45;3.60;;;3.30;;
53927;SDS011;39837;47.630;18.822;2023-05-07T03:49:29;4.47;;;3.90;;
53927;SDS011;39837;47.630;18.822;2023-05-07T03:52:13;5.57;;;4.22;;
53927;SDS011;39837;47.630;18.822;2023-05-07T03:54:58;3.17;;;2.97;;
53927;SDS011;39837;47.630;18.822;2023-05-07T03:57:42;2.83;;;2.63;;
53927;SDS011;39837;47.630;18.822;2023-05-07T04:00:26;3.25;;;3.08;;
53927;SDS011;39837;47.630;18.822;2023-05-07T04:03:10;2.88;;;2.70;;
53927;SDS011;39837;47.630;18.822;2023-05-07T04:05:54;3.22;;;2.83;;
53927;SDS011;39837;47.630;18.822;2023-05-07T04:08:38;4.05;;;3.85;;
53927;SDS011;39837;47.630;18.822;2023-05-07T04:11:22;3.42;;;3.22;;
53927;SDS011;39837;47.630;18.822;2023-05-07T04:14:06;4.88;;;4.13;;
53927;SDS011;39837;47.630;18.822;2023-05-07T04:16:50;2.80;;;2.70;;
53927;SDS011;39837;47.630;18.822;2023-05-07T04:19:33;2.78;;;2.58;;
53927;SDS011;39837;47.630;18.822;2023-05-07T04:22:17;3.53;;;3.33;;
53927;SDS011;39837;47.630;18.822;2023-05-07T04:25:02;3.55;;;3.25;;
53927;SDS011;39837;47.630;18.822;2023-05-07T04:27:47;2.90;;;2.80;;
53927;SDS011;39837;47.630;18.822;2023-05-07T04:30:32;3.10;;;2.80;;
53927;SDS011;39837;47.630;18.822;2023-05-07T04:33:16;3.30;;;3.10;;
53927;SDS011;39837;47.630;18.822;2023-05-07T04:36:01;3.92;;;3.63;;
53927;SDS011;39837;47.630;18.822;2023-05-07T04:38:48;3.60;;;3.20;;
53927;SDS011;39837;47.630;18.822;2023-05-07T04:41:32;3.22;;;2.95;;
53927;SDS011;39837;47.630;18.822;2023-05-07T04:44:17;6.82;;;2.80;;
53927;SDS011;39837;47.630;18.822;2023-05-07T04:47:01;2.97;;;2.77;;
53927;SDS011;39837;47.630;18.822;2023-05-07T04:49:46;4.00;;;3.47;;
53927;SDS011;39837;47.630;18.822;2023-05-07T04:52:30;2.70;;;2.60;;
53927;SDS011;39837;47.630;18.822;2023-05-07T04:55:14;2.63;;;2.53;;
53927;SDS011;39837;47.630;18.822;2023-05-07T04:57:58;3.15;;;2.65;;
53927;SDS011;39837;47.630;18.822;2023-05-07T05:00:45;4.00;;;3.15;;
53927;SDS011;39837;47.630;18.822;2023-05-07T05:03:29;3.30;;;3.10;;
53927;SDS011;39837;47.630;18.822;2023-05-07T05:06:13;3.95;;;3.65;;
53927;SDS011;39837;47.630;18.822;2023-05-07T05:08:57;3.60;;;3.30;;
53927;SDS011;39837;47.630;18.822;2023-05-07T05:11:41;3.60;;;2.95;;
53927;SDS011;39837;47.630;18.822;2023-05-07T05:14:26;3.67;;;3.42;;
53927;SDS011;39837;47.630;18.822;2023-05-07T05:17:10;2.95;;;2.35;;
53927;SDS011;39837;47.630;18.822;2023-05-07T05:19:54;3.47;;;3.25;;
53927;SDS011;39837;47.630;18.822;2023-05-07T05:22:38;4.32;;;3.83;;
53927;SDS011;39837;47.630;18.822;2023-05-07T05:25:22;4.78;;;3.15;;
53927;SDS011;39837;47.630;18.822;2023-05-07T05:28:06;3.50;;;3.20;;
53927;SDS011;39837;47.630;18.822;2023-05-07T05:30:50;3.55;;;3.25;;
53927;SDS011;39837;47.630;18.822;2023-05-07T05:33:34;3.63;;;3.33;;
53927;SDS011;39837;47.630;18.822;2023-05-07T05:36:18;4.38;;;2.92;;
53927;SDS011;39837;47.630;18.822;2023-05-07T05:39:02;4.38;;;3.88;;
53927;SDS011;39837;47.630;18.822;2023-05-07T05:41:47;4.20;;;3.75;;
53927;SDS011;39837;47.630;18.822;2023-05-07T05:44:31;4.63;;;4.13;;
53927;SDS011;39837;47.630;18.822;2023-05-07T05:47:15;5.88;;;4.40;;
53927;SDS011;39837;47.630;18.822;2023-05-07T05:49:59;3.90;;;3.60;;
53927;SDS011;39837;47.630;18.822;2023-05-07T05:52:43;5.20;;;4.60;;
53927;SDS011;39837;47.630;18.822;2023-05-07T05:55:27;9.15;;;4.05;;
53927;SDS011;39837;47.630;18.822;2023-05-07T05:58:11;6.28;;;4.30;;
53927;SDS011;39837;47.630;18.822;2023-05-07T06:00:55;10.10;;;3.50;;
53927;SDS011;39837;47.630;18.822;2023-05-07T06:03:40;5.05;;;4.07;;
53927;SDS011;39837;47.630;18.822;2023-05-07T06:06:24;6.03;;;3.85;;
53927;SDS011;39837;47.630;18.822;2023-05-07T06:09:08;4.78;;;4.47;;
53927;SDS011;39837;47.630;18.822;2023-05-07T06:11:52;7.65;;;4.80;;
53927;SDS011;39837;47.630;18.822;2023-05-07T06:14:36;5.00;;;4.00;;
53927;SDS011;39837;47.630;18.822;2023-05-07T06:17:20;6.15;;;4.43;;
53927;SDS011;39837;47.630;18.822;2023-05-07T06:20:04;5.63;;;3.45;;
53927;SDS011;39837;47.630;18.822;2023-05-07T06:22:49;6.35;;;4.15;;
53927;SDS011;39837;47.630;18.822;2023-05-07T06:25:33;6.18;;;3.90;;
53927;SDS011;39837;47.630;18.822;2023-05-07T06:28:17;4.57;;;4.18;;
53927;SDS011;39837;47.630;18.822;2023-05-07T06:31:11;4.13;;;3.72;;
53927;SDS011;39837;47.630;18.822;2023-05-07T06:33:56;6.03;;;3.90;;
53927;SDS011;39837;47.630;18.822;2023-05-07T06:36:40;3.80;;;3.50;;
53927;SDS011;39837;47.630;18.822;2023-05-07T06:39:25;5.88;;;3.53;;
53927;SDS011;39837;47.630;18.822;2023-05-07T06:42:09;3.15;;;2.95;;
53927;SDS011;39837;47.630;18.822;2023-05-07T06:44:53;2.83;;;2.65;;
53927;SDS011;39837;47.630;18.822;2023-05-07T06:47:37;4.30;;;4.00;;
53927;SDS011;39837;47.630;18.822;2023-05-07T06:50:21;3.55;;;3.25;;
53927;SDS011;39837;47.630;18.822;2023-05-07T06:53:05;4.18;;;3.78;;
53927;SDS011;39837;47.630;18.822;2023-05-07T06:55:49;4.53;;;4.13;;
53927;SDS011;39837;47.630;18.822;2023-05-07T06:58:33;4.78;;;4.38;;
53927;SDS011;39837;47.630;18.822;2023-05-07T07:01:17;3.75;;;3.47;;
53927;SDS011;39837;47.630;18.822;2023-05-07T07:04:01;3.17;;;2.83;;
53927;SDS011;39837;47.630;18.822;2023-05-07T07:06:45;3.38;;;3.08;;
53927;SDS011;39837;47.630;18.822;2023-05-07T07:09:29;4.15;;;3.17;;
53927;SDS011;39837;47.630;18.822;2023-05-07T07:12:13;3.20;;;2.88;;
53927;SDS011;39837;47.630;18.822;2023-05-07T07:14:57;3.22;;;3.03;;
53927;SDS011;39837;47.630;18.822;2023-05-07T07:17:41;3.22;;;3.08;;
53927;SDS011;39837;47.630;18.822;2023-05-07T07:20:25;5.07;;;3.63;;
53927;SDS011;39837;47.630;18.822;2023-05-07T07:23:09;3.40;;;3.20;;
53927;SDS011;39837;47.630;18.822;2023-05-07T07:25:53;3.20;;;2.97;;
53927;SDS011;39837;47.630;18.822;2023-05-07T07:28:44;4.82;;;3.88;;
53927;SDS011;39837;47.630;18.822;2023-05-07T07:31:29;3.55;;;3.17;;
53927;SDS011;39837;47.630;18.822;2023-05-07T07:34:14;2.80;;;2.60;;
53927;SDS011;39837;47.630;18.822;2023-05-07T07:36:58;5.38;;;3.42;;
53927;SDS011;39837;47.630;18.822;2023-05-07T07:39:42;5.38;;;3.60;;
53927;SDS011;39837;47.630;18.822;2023-05-07T07:42:26;4.03;;;3.67;;
53927;SDS011;39837;47.630;18.822;2023-05-07T07:45:10;6.00;;;3.45;;
53927;SDS011;39837;47.630;18.822;2023-05-07T07:47:54;3.30;;;3.08;;
53927;SDS011;39837;47.630;18.822;2023-05-07T07:50:38;4.10;;;3.80;;
53927;SDS011;39837;47.630;18.822;2023-05-07T07:53:22;7.18;;;4.57;;
53927;SDS011;39837;47.630;18.822;2023-05-07T07:56:06;3.30;;;3.05;;
53927;SDS011;39837;47.630;18.822;2023-05-07T07:58:51;5.00;;;4.50;;
53927;SDS011;39837;47.630;18.822;2023-05-07T08:01:35;3.90;;;3.65;;
53927;SDS011;39837;47.630;18.822;2023-05-07T08:04:19;3.88;;;3.58;;
53927;SDS011;39837;47.630;18.822;2023-05-07T08:07:03;4.07;;;3.78;;
53927;SDS011;39837;47.630;18.822;2023-05-07T08:09:47;4.22;;;3.75;;
53927;SDS011;39837;47.630;18.822;2023-05-07T08:12:31;3.92;;;3.53;;
53927;SDS011;39837;47.630;18.822;2023-05-07T08:15:15;3.95;;;3.65;;
53927;SDS011;39837;47.630;18.822;2023-05-07T08:18:00;4.30;;;4.00;;
53927;SDS011;39837;47.630;18.822;2023-05-07T08:20:45;10.85;;;3.78;;
53927;SDS011;39837;47.630;18.822;2023-05-07T08:23:29;4.07;;;3.47;;
53927;SDS011;39837;47.630;18.822;2023-05-07T08:26:14;5.93;;;4.37;;
53927;SDS011;39837;47.630;18.822;2023-05-07T08:28:58;4.97;;;4.10;;
53927;SDS011;39837;47.630;18.822;2023-05-07T08:31:41;3.80;;;3.50;;
53927;SDS011;39837;47.630;18.822;2023-05-07T08:34:25;4.63;;;3.15;;
53927;SDS011;39837;47.630;18.822;2023-05-07T08:37:10;4.35;;;3.95;;
53927;SDS011;39837;47.630;18.822;2023-05-07T08:39:54;5.15;;;4.65;;
53927;SDS011;39837;47.630;18.822;2023-05-07T08:42:38;5.20;;;4.47;;
53927;SDS011;39837;47.630;18.822;2023-05-07T08:45:23;6.27;;;5.37;;
53927;SDS011;39837;47.630;18.822;2023-05-07T08:48:09;5.28;;;4.47;;
53927;SDS011;39837;47.630;18.822;2023-05-07T08:50:58;3.90;;;3.28;;
53927;SDS011;39837;47.630;18.822;2023-05-07T08:53:43;4.00;;;3.70;;
53927;SDS011;39837;47.630;18.822;2023-05-07T08:56:28;3.27;;;3.07;;
53927;SDS011;39837;47.630;18.822;2023-05-07T08:59:11;3.95;;;3.67;;
53927;SDS011;39837;47.630;18.822;2023-05-07T09:01:56;3.25;;;3.00;;
53927;SDS011;39837;47.630;18.822;2023-05-07T09:04:40;4.03;;;2.60;;
53927;SDS011;39837;47.630;18.822;2023-05-07T09:07:24;2.70;;;2.08;;
53927;SDS011;39837;47.630;18.822;2023-05-07T09:10:09;2.40;;;2.22;;
53927;SDS011;39837;47.630;18.822;2023-05-07T09:12:54;2.80;;;2.37;;
53927;SDS011;39837;47.630;18.822;2023-05-07T09:15:38;2.45;;;2.25;;
53927;SDS011;39837;47.630;18.822;2023-05-07T09:18:25;3.00;;;2.80;;
53927;SDS011;39837;47.630;18.822;2023-05-07T09:21:10;3.22;;;3.00;;
53927;SDS011;39837;47.630;18.822;2023-05-07T09:23:55;2.72;;;2.55;;
53927;SDS011;39837;47.630;18.822;2023-05-07T09:26:40;3.10;;;2.80;;
53927;SDS011;39837;47.630;18.822;2023-05-07T09:29:24;3.43;;;2.80;;
53927;SDS011;39837;47.630;18.822;2023-05-07T09:32:08;6.57;;;3.03;;
53927;SDS011;39837;47.630;18.822;2023-05-07T09:34:52;2.03;;;1.83;;
53927;SDS011;39837;47.630;18.822;2023-05-07T09:37:37;1.65;;;1.65;;
53927;SDS011;39837;47.630;18.822;2023-05-07T09:40:25;2.50;;;2.40;;
53927;SDS011;39837;47.630;18.822;2023-05-07T09:43:10;2.85;;;2.08;;
53927;SDS011;39837;47.630;18.822;2023-05-07T09:45:55;1.75;;;1.73;;
53927;SDS011;39837;47.630;18.822;2023-05-07T09:48:39;2.33;;;2.13;;
53927;SDS011;39837;47.630;18.822;2023-05-07T09:51:28;2.13;;;2.00;;
53927;SDS011;39837;47.630;18.822;2023-05-07T09:54:13;3.40;;;2.40;;
53927;SDS011;39837;47.630;18.822;2023-05-07T09:56:57;2.22;;;2.05;;
53927;SDS011;39837;47.630;18.822;2023-05-07T10:02:27;3.47;;;2.22;;
53927;SDS011;39837;47.630;18.822;2023-05-07T10:05:16;2.53;;;2.42;;
53927;SDS011;39837;47.630;18.822;2023-05-07T10:08:00;2.42;;;2.22;;
53927;SDS011;39837;47.630;18.822;2023-05-07T10:10:45;2.67;;;2.35;;
53927;SDS011;39837;47.630;18.822;2023-05-07T10:13:29;1.13;;;1.13;;
53927;SDS011;39837;47.630;18.822;2023-05-07T10:16:14;1.90;;;1.63;;
53927;SDS011;39837;47.630;18.822;2023-05-07T10:18:58;1.77;;;1.73;;
53927;SDS011;39837;47.630;18.822;2023-05-07T10:21:56;1.38;;;1.35;;
53927;SDS011;39837;47.630;18.822;2023-05-07T10:24:44;2.30;;;2.10;;
53927;SDS011;39837;47.630;18.822;2023-05-07T10:27:28;2.65;;;2.55;;
53927;SDS011;39837;47.630;18.822;2023-05-07T10:33:38;2.50;;;2.30;;
53927;SDS011;39837;47.630;18.822;2023-05-07T10:36:22;2.92;;;2.60;;
53927;SDS011;39837;47.630;18.822;2023-05-07T10:39:07;4.38;;;3.05;;
53927;SDS011;39837;47.630;18.822;2023-05-07T10:41:51;5.05;;;3.25;;
53927;SDS011;39837;47.630;18.822;2023-05-07T10:44:36;2.42;;;2.33;;
53927;SDS011;39837;47.630;18.822;2023-05-07T10:47:20;2.25;;;2.15;;
53927;SDS011;39837;47.630;18.822;2023-05-07T10:53:15;2.03;;;1.92;;
53927;SDS011;39837;47.630;18.822;2023-05-07T11:02:03;2.42;;;2.33;;
53927;SDS011;39837;47.630;18.822;2023-05-07T11:08:08;1.48;;;1.48;;
53927;SDS011;39837;47.630;18.822;2023-05-07T11:10:53;2.65;;;2.03;;
53927;SDS011;39837;47.630;18.822;2023-05-07T11:16:29;2.03;;;1.92;;
53927;SDS011;39837;47.630;18.822;2023-05-07T11:19:14;1.85;;;1.80;;
53927;SDS011;39837;47.630;18.822;2023-05-07T11:21:57;2.17;;;2.08;;
53927;SDS011;39837;47.630;18.822;2023-05-07T11:24:41;2.30;;;2.20;;
53927;SDS011;39837;47.630;18.822;2023-05-07T11:27:26;2.10;;;2.00;;
53927;SDS011;39837;47.630;18.822;2023-05-07T11:30:11;1.92;;;1.83;;
53927;SDS011;39837;47.630;18.822;2023-05-07T11:33:01;1.65;;;1.65;;
53927;SDS011;39837;47.630;18.822;2023-05-07T11:35:46;2.05;;;1.92;;
53927;SDS011;39837;47.630;18.822;2023-05-07T11:38:30;1.65;;;1.65;;
53927;SDS011;39837;47.630;18.822;2023-05-07T11:41:18;2.83;;;1.70;;
53927;SDS011;39837;47.630;18.822;2023-05-07T11:44:04;1.90;;;1.80;;
53927;SDS011;39837;47.630;18.822;2023-05-07T11:46:48;3.10;;;2.40;;
53927;SDS011;39837;47.630;18.822;2023-05-07T11:49:32;1.58;;;1.58;;
53927;SDS011;39837;47.630;18.822;2023-05-07T11:52:17;1.52;;;1.52;;
53927;SDS011;39837;47.630;18.822;2023-05-07T11:55:01;1.60;;;1.50;;
53927;SDS011;39837;47.630;18.822;2023-05-07T11:57:47;1.45;;;1.35;;
53927;SDS011;39837;47.630;18.822;2023-05-07T12:00:31;2.33;;;2.15;;
53927;SDS011;39837;47.630;18.822;2023-05-07T12:03:15;1.80;;;1.70;;
53927;SDS011;39837;47.630;18.822;2023-05-07T12:05:59;1.73;;;1.52;;
53927;SDS011;39837;47.630;18.822;2023-05-07T12:08:44;1.83;;;1.73;;
53927;SDS011;39837;47.630;18.822;2023-05-07T12:11:28;1.77;;;1.45;;
53927;SDS011;39837;47.630;18.822;2023-05-07T12:14:12;1.63;;;1.52;;
53927;SDS011;39837;47.630;18.822;2023-05-07T12:16:56;1.52;;;1.42;;
53927;SDS011;39837;47.630;18.822;2023-05-07T12:19:41;1.70;;;1.35;;
53927;SDS011;39837;47.630;18.822;2023-05-07T12:22:26;1.38;;;1.38;;
53927;SDS011;39837;47.630;18.822;2023-05-07T12:25:10;3.30;;;1.58;;
53927;SDS011;39837;47.630;18.822;2023-05-07T12:27:54;1.50;;;1.50;;
53927;SDS011;39837;47.630;18.822;2023-05-07T12:30:39;2.33;;;1.55;;
53927;SDS011;39837;47.630;18.822;2023-05-07T12:33:24;1.50;;;1.48;;
53927;SDS011;39837;47.630;18.822;2023-05-07T12:36:11;1.80;;;1.70;;
53927;SDS011;39837;47.630;18.822;2023-05-07T12:38:56;1.88;;;1.70;;
53927;SDS011;39837;47.630;18.822;2023-05-07T12:41:56;1.40;;;1.40;;
53927;SDS011;39837;47.630;18.822;2023-05-07T12:44:45;1.30;;;1.30;;
53927;SDS011;39837;47.630;18.822;2023-05-07T12:50:14;1.60;;;1.48;;
53927;SDS011;39837;47.630;18.822;2023-05-07T12:52:59;1.80;;;1.70;;
53927;SDS011;39837;47.630;18.822;2023-05-07T12:55:47;1.42;;;1.42;;
53927;SDS011;39837;47.630;18.822;2023-05-07T12:58:35;1.65;;;1.55;;
53927;SDS011;39837;47.630;18.822;2023-05-07T13:01:19;1.50;;;1.50;;
53927;SDS011;39837;47.630;18.822;2023-05-07T13:04:05;1.85;;;1.60;;
53927;SDS011;39837;47.630;18.822;2023-05-07T13:06:49;1.67;;;1.58;;
53927;SDS011;39837;47.630;18.822;2023-05-07T13:09:33;1.60;;;1.50;;
53927;SDS011;39837;47.630;18.822;2023-05-07T13:12:17;1.33;;;1.30;;
53927;SDS011;39837;47.630;18.822;2023-05-07T13:15:01;5.82;;;1.45;;
53927;SDS011;39837;47.630;18.822;2023-05-07T13:17:45;1.63;;;1.45;;
53927;SDS011;39837;47.630;18.822;2023-05-07T13:20:29;1.38;;;1.23;;
53927;SDS011;39837;47.630;18.822;2023-05-07T13:23:13;1.30;;;1.30;;
53927;SDS011;39837;47.630;18.822;2023-05-07T13:25:57;1.40;;;1.40;;
53927;SDS011;39837;47.630;18.822;2023-05-07T13:28:41;1.13;;;1.13;;
53927;SDS011;39837;47.630;18.822;2023-05-07T13:34:11;1.38;;;1.20;;
53927;SDS011;39837;47.630;18.822;2023-05-07T13:36:55;1.77;;;1.40;;
53927;SDS011;39837;47.630;18.822;2023-05-07T13:39:40;1.35;;;1.35;;
53927;SDS011;39837;47.630;18.822;2023-05-07T13:42:24;1.55;;;1.55;;
53927;SDS011;39837;47.630;18.822;2023-05-07T13:45:08;1.27;;;1.27;;
53927;SDS011;39837;47.630;18.822;2023-05-07T13:47:53;2.28;;;1.27;;
53927;SDS011;39837;47.630;18.822;2023-05-07T13:50:36;1.10;;;1.10;;
53927;SDS011;39837;47.630;18.822;2023-05-07T13:53:21;1.37;;;1.37;;
53927;SDS011;39837;47.630;18.822;2023-05-07T13:56:05;1.35;;;1.30;;
53927;SDS011;39837;47.630;18.822;2023-05-07T13:58:49;1.88;;;1.73;;
53927;SDS011;39837;47.630;18.822;2023-05-07T14:01:33;1.73;;;1.63;;
53927;SDS011;39837;47.630;18.822;2023-05-07T14:04:17;1.63;;;1.60;;
53927;SDS011;39837;47.630;18.822;2023-05-07T14:07:01;1.50;;;1.50;;
53927;SDS011;39837;47.630;18.822;2023-05-07T14:09:45;2.05;;;1.92;;
53927;SDS011;39837;47.630;18.822;2023-05-07T14:12:29;4.30;;;1.90;;
53927;SDS011;39837;47.630;18.822;2023-05-07T14:15:13;2.00;;;1.80;;
53927;SDS011;39837;47.630;18.822;2023-05-07T14:17:57;1.63;;;1.58;;
53927;SDS011;39837;47.630;18.822;2023-05-07T14:20:42;1.80;;;1.70;;
53927;SDS011;39837;47.630;18.822;2023-05-07T14:23:31;1.30;;;1.30;;
53927;SDS011;39837;47.630;18.822;2023-05-07T14:26:15;2.00;;;1.77;;
53927;SDS011;39837;47.630;18.822;2023-05-07T14:28:59;2.10;;;2.00;;
53927;SDS011;39837;47.630;18.822;2023-05-07T14:31:43;1.95;;;1.85;;
53927;SDS011;39837;47.630;18.822;2023-05-07T14:34:27;1.85;;;1.75;;
53927;SDS011;39837;47.630;18.822;2023-05-07T14:37:12;1.77;;;1.67;;
53927;SDS011;39837;47.630;18.822;2023-05-07T14:39:56;1.63;;;1.58;;
53927;SDS011;39837;47.630;18.822;2023-05-07T14:42:40;2.28;;;1.80;;
53927;SDS011;39837;47.630;18.822;2023-05-07T14:45:24;2.47;;;2.28;;
53927;SDS011;39837;47.630;18.822;2023-05-07T14:48:08;2.05;;;1.60;;
53927;SDS011;39837;47.630;18.822;2023-05-07T14:50:56;1.40;;;1.40;;
53927;SDS011;39837;47.630;18.822;2023-05-07T14:53:40;1.13;;;1.13;;
53927;SDS011;39837;47.630;18.822;2023-05-07T14:56:25;1.33;;;1.33;;
53927;SDS011;39837;47.630;18.822;2023-05-07T14:59:09;1.30;;;1.20;;
53927;SDS011;39837;47.630;18.822;2023-05-07T15:01:53;1.75;;;1.40;;
53927;SDS011;39837;47.630;18.822;2023-05-07T15:04:37;1.83;;;1.45;;
53927;SDS011;39837;47.630;18.822;2023-05-07T15:07:23;3.00;;;1.40;;
53927;SDS011;39837;47.630;18.822;2023-05-07T15:10:07;1.23;;;1.20;;
53927;SDS011;39837;47.630;18.822;2023-05-07T15:12:51;1.20;;;1.20;;
53927;SDS011;39837;47.630;18.822;2023-05-07T15:15:36;0.98;;;0.98;;
53927;SDS011;39837;47.630;18.822;2023-05-07T15:18:20;1.10;;;1.10;;
53927;SDS011;39837;47.630;18.822;2023-05-07T15:21:04;1.15;;;1.15;;
53927;SDS011;39837;47.630;18.822;2023-05-07T15:23:48;1.10;;;1.10;;
53927;SDS011;39837;47.630;18.822;2023-05-07T15:26:33;0.90;;;0.90;;
53927;SDS011;39837;47.630;18.822;2023-05-07T15:29:17;1.00;;;1.00;;
53927;SDS011;39837;47.630;18.822;2023-05-07T15:32:01;1.00;;;1.00;;
53927;SDS011;39837;47.630;18.822;2023-05-07T15:34:44;1.45;;;1.10;;
53927;SDS011;39837;47.630;18.822;2023-05-07T15:37:30;1.00;;;1.00;;
53927;SDS011;39837;47.630;18.822;2023-05-07T15:40:14;2.50;;;1.35;;
53927;SDS011;39837;47.630;18.822;2023-05-07T15:42:58;3.60;;;1.80;;
53927;SDS011;39837;47.630;18.822;2023-05-07T15:45:43;1.33;;;1.33;;
53927;SDS011;39837;47.630;18.822;2023-05-07T15:48:28;1.08;;;1.00;;
53927;SDS011;39837;47.630;18.822;2023-05-07T15:51:12;0.98;;;0.90;;
53927;SDS011;39837;47.630;18.822;2023-05-07T15:53:56;1.17;;;1.13;;
53927;SDS011;39837;47.630;18.822;2023-05-07T15:56:40;0.90;;;0.90;;
53927;SDS011;39837;47.630;18.822;2023-05-07T15:59:24;1.40;;;1.30;;
53927;SDS011;39837;47.630;18.822;2023-05-07T16:02:08;1.10;;;1.10;;
53927;SDS011;39837;47.630;18.822;2023-05-07T16:04:53;1.27;;;0.98;;
53927;SDS011;39837;47.630;18.822;2023-05-07T16:07:36;1.00;;;1.00;;
53927;SDS011;39837;47.630;18.822;2023-05-07T16:10:21;1.20;;;1.20;;
53927;SDS011;39837;47.630;18.822;2023-05-07T16:13:05;2.10;;;1.90;;
53927;SDS011;39837;47.630;18.822;2023-05-07T16:15:54;0.90;;;0.90;;
53927;SDS011;39837;47.630;18.822;2023-05-07T16:18:39;0.85;;;0.85;;
53927;SDS011;39837;47.630;18.822;2023-05-07T16:21:23;1.70;;;1.58;;
53927;SDS011;39837;47.630;18.822;2023-05-07T16:24:07;0.82;;;0.82;;
53927;SDS011;39837;47.630;18.822;2023-05-07T16:26:52;1.15;;;1.15;;
53927;SDS011;39837;47.630;18.822;2023-05-07T16:29:36;2.25;;;1.00;;
53927;SDS011;39837;47.630;18.822;2023-05-07T16:32:20;1.20;;;1.10;;
53927;SDS011;39837;47.630;18.822;2023-05-07T16:35:04;0.90;;;0.90;;
53927;SDS011;39837;47.630;18.822;2023-05-07T16:37:48;0.80;;;0.80;;
53927;SDS011;39837;47.630;18.822;2023-05-07T16:40:33;1.05;;;1.05;;
53927;SDS011;39837;47.630;18.822;2023-05-07T16:43:20;0.93;;;0.93;;